createdAt,value
2023-05-16T00:02:00.847Z,1004.92
2023-05-16T00:03:00.814Z,1004.90
2023-05-16T00:05:04.740Z,1004.90
2023-05-16T00:06:04.731Z,1004.89
2023-05-16T00:08:08.707Z,1004.90
2023-05-16T00:09:08.693Z,1004.90
2023-05-16T00:11:12.671Z,1004.96
2023-05-16T00:12:12.663Z,1005.00
2023-05-16T00:14:16.629Z,1005.03
2023-05-16T00:15:16.614Z,1005.06
2023-05-16T00:17:20.723Z,1005.08
2023-05-16T00:18:20.576Z,1005.12
2023-05-16T00:20:13.486Z,1005.12
2023-05-16T00:21:13.477Z,1005.11
2023-05-16T00:22:13.459Z,1005.11
2023-05-16T00:23:13.456Z,1005.14
2023-05-16T00:24:13.450Z,1005.17
2023-05-16T00:25:13.443Z,1005.16
2023-05-16T00:26:13.438Z,1005.15
2023-05-16T00:27:13.430Z,1005.13
2023-05-16T00:28:13.420Z,1005.16
2023-05-16T00:29:13.418Z,1005.18
2023-05-16T00:30:13.411Z,1005.18
2023-05-16T00:31:13.407Z,1005.16
2023-05-16T00:32:13.493Z,1005.14
2023-05-16T00:33:13.463Z,1005.12
2023-05-16T00:34:13.418Z,1005.14
2023-05-16T00:35:13.378Z,1005.17
2023-05-16T00:36:13.385Z,1005.16
2023-05-16T00:37:13.366Z,1005.18
2023-05-16T00:38:13.361Z,1005.22
2023-05-16T00:39:13.357Z,1005.22
2023-05-16T00:40:13.353Z,1005.22
2023-05-16T00:41:13.341Z,1005.22
2023-05-16T00:42:13.340Z,1005.24
2023-05-16T00:43:13.330Z,1005.21
2023-05-16T00:44:13.324Z,1005.27
2023-05-16T00:45:13.322Z,1005.22
2023-05-16T00:46:13.352Z,1005.20
2023-05-16T00:47:13.304Z,1005.22
2023-05-16T00:48:13.351Z,1005.21
2023-05-16T00:49:13.289Z,1005.19
2023-05-16T00:50:13.292Z,1005.23
2023-05-16T00:51:13.280Z,1005.23
2023-05-16T00:52:13.273Z,1005.25
2023-05-16T00:53:13.264Z,1005.22
2023-05-16T00:54:13.257Z,1005.24
2023-05-16T00:55:13.256Z,1005.24
2023-05-16T00:56:13.245Z,1005.24
2023-05-16T00:57:13.242Z,1005.30
2023-05-16T00:58:13.231Z,1005.31
2023-05-16T00:59:13.226Z,1005.33
2023-05-16T01:00:13.213Z,1005.34
2023-05-16T01:01:13.235Z,1005.34
2023-05-16T01:02:13.293Z,1005.35
2023-05-16T01:03:13.303Z,1005.43
2023-05-16T01:04:13.195Z,1005.44
2023-05-16T01:05:13.188Z,1005.44
2023-05-16T01:06:13.180Z,1005.40
2023-05-16T01:07:13.202Z,1005.45
2023-05-16T01:08:13.167Z,1005.46
2023-05-16T01:09:13.158Z,1005.47
2023-05-16T01:10:13.147Z,1005.53
2023-05-16T01:11:13.165Z,1005.53
2023-05-16T01:12:13.146Z,1005.52
2023-05-16T01:13:13.135Z,1005.56
2023-05-16T01:14:13.121Z,1005.53
2023-05-16T01:15:13.122Z,1005.54
2023-05-16T01:16:13.142Z,1005.46
2023-05-16T01:17:13.134Z,1005.49
2023-05-16T01:18:13.151Z,1005.50
2023-05-16T01:19:13.180Z,1005.51
2023-05-16T01:20:13.087Z,1005.55
2023-05-16T01:21:13.073Z,1005.54
2023-05-16T01:22:13.066Z,1005.55
2023-05-16T01:23:13.060Z,1005.54
2023-05-16T01:24:13.112Z,1005.58
2023-05-16T01:25:13.044Z,1005.58
2023-05-16T01:26:13.037Z,1005.45
2023-05-16T01:27:13.032Z,1005.62
2023-05-16T01:28:13.025Z,1005.63
2023-05-16T01:29:13.017Z,1005.65
2023-05-16T01:30:13.009Z,1005.64
2023-05-16T01:33:04.208Z,1005.63
2023-05-16T01:33:55.729Z,1005.66
2023-05-16T01:35:59.665Z,1005.68
2023-05-16T01:36:59.649Z,1005.72
2023-05-16T01:39:03.655Z,1005.69
2023-05-16T01:40:03.626Z,1005.70
2023-05-16T01:42:07.614Z,1005.72
2023-05-16T01:43:07.592Z,1005.69
2023-05-16T01:45:11.571Z,1005.75
2023-05-16T01:46:11.613Z,1005.76
2023-05-16T01:48:15.569Z,1005.80
2023-05-16T01:49:15.512Z,1005.82
2023-05-16T01:51:19.503Z,1005.85
2023-05-16T01:52:19.486Z,1005.90
2023-05-16T01:54:23.463Z,1005.94
2023-05-16T01:55:23.441Z,1005.89
2023-05-16T01:57:27.451Z,1005.90
2023-05-16T01:58:27.426Z,1005.90
2023-05-16T02:00:20.316Z,1005.94
2023-05-16T02:01:20.320Z,1005.99
2023-05-16T02:02:20.363Z,1006.00
2023-05-16T02:03:20.374Z,1006.04
2023-05-16T02:04:20.326Z,1006.07
2023-05-16T02:05:20.272Z,1006.06
2023-05-16T02:06:20.267Z,1006.10
2023-05-16T02:07:20.318Z,1006.13
2023-05-16T02:08:20.252Z,1006.15
2023-05-16T02:09:20.250Z,1006.15
2023-05-16T02:10:20.285Z,1006.20
2023-05-16T02:11:20.238Z,1006.15
2023-05-16T02:12:20.223Z,1006.24
2023-05-16T02:13:20.217Z,1006.23
2023-05-16T02:14:20.205Z,1006.28
2023-05-16T02:15:20.201Z,1006.28
2023-05-16T02:16:20.211Z,1006.27
2023-05-16T02:17:20.255Z,1006.30
2023-05-16T02:18:20.199Z,1006.31
2023-05-16T02:19:20.207Z,1006.29
2023-05-16T02:20:20.164Z,1006.32
2023-05-16T02:21:20.161Z,1006.40
2023-05-16T02:22:20.151Z,1006.38
2023-05-16T02:23:20.143Z,1006.30
2023-05-16T02:24:20.136Z,1006.37
2023-05-16T02:25:20.129Z,1006.37
2023-05-16T02:26:20.118Z,1006.42
2023-05-16T02:27:20.108Z,1006.41
2023-05-16T02:28:20.110Z,1006.42
2023-05-16T02:29:20.102Z,1006.41
2023-05-16T02:30:20.102Z,1006.39
2023-05-16T02:31:20.156Z,1006.43
2023-05-16T02:32:20.143Z,1006.39
2023-05-16T02:33:20.070Z,1006.40
2023-05-16T02:34:20.061Z,1006.43
2023-05-16T02:35:20.055Z,1006.40
2023-05-16T02:36:20.045Z,1006.39
2023-05-16T02:37:20.056Z,1006.46
2023-05-16T02:38:20.036Z,1006.43
2023-05-16T02:39:20.022Z,1006.42
2023-05-16T02:40:20.020Z,1006.44
2023-05-16T02:41:20.007Z,1006.49
2023-05-16T02:42:20.002Z,1006.47
2023-05-16T02:43:20.000Z,1006.54
2023-05-16T02:44:19.991Z,1006.52
2023-05-16T02:45:19.982Z,1006.54
2023-05-16T02:46:20.021Z,1006.56
2023-05-16T02:47:20.064Z,1006.56
2023-05-16T02:48:19.960Z,1006.60
2023-05-16T02:49:19.957Z,1006.57
2023-05-16T02:50:19.942Z,1006.67
2023-05-16T02:51:19.933Z,1006.61
2023-05-16T02:52:19.923Z,1006.67
2023-05-16T02:53:19.917Z,1006.67
2023-05-16T02:54:19.934Z,1006.71
2023-05-16T02:55:22.424Z,1006.72
2023-05-16T02:56:19.899Z,1006.72
2023-05-16T02:57:19.923Z,1006.75
2023-05-16T02:58:19.887Z,1006.72
2023-05-16T02:59:19.873Z,1006.77
2023-05-16T03:00:19.939Z,1006.74
2023-05-16T03:01:19.954Z,1006.72
2023-05-16T03:02:19.889Z,1006.72
2023-05-16T03:03:19.937Z,1006.73
2023-05-16T03:04:19.835Z,1006.73
2023-05-16T03:05:19.830Z,1006.75
2023-05-16T03:06:19.816Z,1006.76
2023-05-16T03:07:19.816Z,1006.80
2023-05-16T03:08:19.801Z,1006.81
2023-05-16T03:09:19.799Z,1006.80
2023-05-16T03:10:19.788Z,1006.77
2023-05-16T03:11:19.781Z,1006.80
2023-05-16T03:12:19.769Z,1006.81
2023-05-16T03:13:19.766Z,1006.86
2023-05-16T03:14:19.759Z,1006.92
2023-05-16T03:15:19.749Z,1006.88
2023-05-16T03:16:19.820Z,1006.90
2023-05-16T03:17:19.778Z,1006.87
2023-05-16T03:18:19.729Z,1006.91
2023-05-16T03:19:19.909Z,1006.97
2023-05-16T03:20:19.752Z,1006.95
2023-05-16T03:21:19.704Z,1006.96
2023-05-16T03:22:19.713Z,1006.98
2023-05-16T03:23:19.700Z,1007.02
2023-05-16T03:24:19.727Z,1007.03
2023-05-16T03:25:19.670Z,1007.03
2023-05-16T03:26:19.666Z,1007.09
2023-05-16T03:27:19.662Z,1007.12
2023-05-16T03:28:19.659Z,1007.14
2023-05-16T03:29:19.647Z,1007.15
2023-05-16T03:30:19.642Z,1007.19
2023-05-16T03:31:19.670Z,1007.19
2023-05-16T03:32:19.695Z,1007.17
2023-05-16T03:33:19.617Z,1007.20
2023-05-16T03:34:19.604Z,1007.15
2023-05-16T03:35:19.602Z,1007.16
2023-05-16T03:36:19.589Z,1007.11
2023-05-16T03:37:19.603Z,1007.18
2023-05-16T03:38:19.575Z,1007.21
2023-05-16T03:39:19.573Z,1007.24
2023-05-16T03:40:19.564Z,1007.26
2023-05-16T03:41:19.555Z,1007.23
2023-05-16T03:42:19.547Z,1007.31
2023-05-16T03:43:19.546Z,1007.35
2023-05-16T03:44:19.531Z,1007.32
2023-05-16T03:45:19.525Z,1007.37
2023-05-16T03:46:19.588Z,1007.36
2023-05-16T03:47:19.507Z,1007.37
2023-05-16T03:48:19.524Z,1007.37
2023-05-16T03:49:19.499Z,1007.34
2023-05-16T03:50:19.492Z,1007.39
2023-05-16T03:51:19.477Z,1007.29
2023-05-16T03:52:19.473Z,1007.29
2023-05-16T03:53:19.472Z,1007.33
2023-05-16T03:54:19.453Z,1007.31
2023-05-16T03:55:19.444Z,1007.30
2023-05-16T03:56:19.443Z,1007.31
2023-05-16T03:57:19.433Z,1007.29
2023-05-16T03:58:19.421Z,1007.30
2023-05-16T03:59:19.417Z,1007.27
2023-05-16T04:00:19.406Z,1007.34
2023-05-16T04:01:19.437Z,1007.28
2023-05-16T04:02:19.440Z,1007.30
2023-05-16T04:03:19.441Z,1007.33
2023-05-16T04:04:19.373Z,1007.35
2023-05-16T04:05:19.456Z,1007.37
2023-05-16T04:06:19.462Z,1007.36
2023-05-16T04:07:20.332Z,1007.35
2023-05-16T04:08:19.342Z,1007.35
2023-05-16T04:09:19.344Z,1007.35
2023-05-16T04:10:19.354Z,1007.37
2023-05-16T04:11:19.342Z,1007.38
2023-05-16T04:12:19.314Z,1007.36
2023-05-16T04:13:19.366Z,1007.37
2023-05-16T04:14:19.299Z,1007.37
2023-05-16T04:15:19.295Z,1007.39
2023-05-16T04:16:19.321Z,1007.41
2023-05-16T04:17:19.272Z,1007.40
2023-05-16T04:18:19.268Z,1007.39
2023-05-16T04:19:19.485Z,1007.38
2023-05-16T04:20:19.253Z,1007.39
2023-05-16T04:21:19.246Z,1007.39
2023-05-16T04:22:19.237Z,1007.42
2023-05-16T04:23:19.234Z,1007.48
2023-05-16T04:24:19.222Z,1007.48
2023-05-16T04:25:19.216Z,1007.50
2023-05-16T04:26:19.206Z,1007.56
2023-05-16T04:27:19.198Z,1007.57
2023-05-16T04:28:19.193Z,1007.58
2023-05-16T04:29:19.187Z,1007.57
2023-05-16T04:30:19.172Z,1007.66
2023-05-16T04:31:19.220Z,1007.64
2023-05-16T04:32:19.166Z,1007.66
2023-05-16T04:33:19.154Z,1007.68
2023-05-16T04:34:19.145Z,1007.66
2023-05-16T04:35:19.138Z,1007.73
2023-05-16T04:36:19.130Z,1007.75
2023-05-16T04:37:19.124Z,1007.79
2023-05-16T04:38:19.119Z,1007.78
2023-05-16T04:39:19.112Z,1007.81
2023-05-16T04:40:19.136Z,1007.85
2023-05-16T04:41:19.090Z,1007.84
2023-05-16T04:42:19.100Z,1007.87
2023-05-16T04:43:19.074Z,1007.79
2023-05-16T04:44:19.073Z,1007.88
2023-05-16T04:45:19.107Z,1007.89
2023-05-16T04:46:19.108Z,1007.88
2023-05-16T04:47:19.074Z,1007.90
2023-05-16T04:48:19.044Z,1007.91
2023-05-16T04:49:19.041Z,1007.90
2023-05-16T04:50:19.050Z,1007.97
2023-05-16T04:51:19.041Z,1007.97
2023-05-16T04:52:19.030Z,1007.98
2023-05-16T04:53:18.999Z,1007.96
2023-05-16T04:54:18.987Z,1007.99
2023-05-16T04:55:18.982Z,1008.00
2023-05-16T04:56:18.971Z,1007.99
2023-05-16T04:57:18.974Z,1008.04
2023-05-16T04:58:18.965Z,1008.03
2023-05-16T04:59:18.952Z,1008.07
2023-05-16T05:00:18.946Z,1008.12
2023-05-16T05:01:18.998Z,1008.16
2023-05-16T05:02:18.929Z,1008.13
2023-05-16T05:03:19.011Z,1008.20
2023-05-16T05:04:18.910Z,1008.19
2023-05-16T05:05:18.956Z,1008.19
2023-05-16T05:06:18.896Z,1008.23
2023-05-16T05:07:18.894Z,1008.20
2023-05-16T05:08:18.888Z,1008.26
2023-05-16T05:09:18.872Z,1008.25
2023-05-16T05:10:18.861Z,1008.31
2023-05-16T05:11:18.854Z,1008.31
2023-05-16T05:12:18.855Z,1008.29
2023-05-16T05:13:18.839Z,1008.32
2023-05-16T05:14:18.828Z,1008.30
2023-05-16T05:15:18.821Z,1008.39
2023-05-16T05:16:18.810Z,1008.42
2023-05-16T05:17:18.837Z,1008.38
2023-05-16T05:18:18.846Z,1008.44
2023-05-16T05:19:18.861Z,1008.48
2023-05-16T05:20:18.787Z,1008.51
2023-05-16T05:21:18.795Z,1008.52
2023-05-16T05:22:18.769Z,1008.60
2023-05-16T05:23:18.758Z,1008.59
2023-05-16T05:24:18.750Z,1008.58
2023-05-16T05:25:18.742Z,1008.61
2023-05-16T05:26:18.729Z,1008.50
2023-05-16T05:27:18.738Z,1008.64
2023-05-16T05:28:18.727Z,1008.65
2023-05-16T05:29:18.717Z,1008.64
2023-05-16T05:30:18.705Z,1008.65
2023-05-16T05:31:18.706Z,1008.70
2023-05-16T05:32:18.684Z,1008.66
2023-05-16T05:33:18.819Z,1008.67
2023-05-16T05:34:18.666Z,1008.66
2023-05-16T05:35:18.659Z,1008.64
2023-05-16T05:36:18.653Z,1008.63
2023-05-16T05:37:18.640Z,1008.63
2023-05-16T05:38:18.633Z,1008.70
2023-05-16T05:39:18.628Z,1008.69
2023-05-16T05:40:18.719Z,1008.74
2023-05-16T05:41:18.610Z,1008.74
2023-05-16T05:42:18.597Z,1008.75
2023-05-16T05:43:18.592Z,1008.81
2023-05-16T05:44:18.592Z,1008.85
2023-05-16T05:45:18.575Z,1008.88
2023-05-16T05:46:18.622Z,1008.88
2023-05-16T05:47:18.557Z,1008.92
2023-05-16T05:48:18.574Z,1008.94
2023-05-16T05:49:18.545Z,1008.93
2023-05-16T05:50:18.532Z,1009.00
2023-05-16T05:51:18.560Z,1009.01
2023-05-16T05:52:18.522Z,1009.02
2023-05-16T05:53:18.507Z,1009.01
2023-05-16T05:54:18.502Z,1008.97
2023-05-16T05:55:18.490Z,1008.96
2023-05-16T05:56:18.492Z,1009.02
2023-05-16T05:57:18.480Z,1008.96
2023-05-16T05:58:18.494Z,1009.00
2023-05-16T05:59:18.461Z,1009.02
2023-05-16T06:00:18.460Z,1009.01
2023-05-16T06:01:18.458Z,1009.04
2023-05-16T06:02:18.476Z,1009.00
2023-05-16T06:03:18.593Z,1009.07
2023-05-16T06:04:18.422Z,1009.08
2023-05-16T06:05:18.459Z,1009.07
2023-05-16T06:06:18.412Z,1009.04
2023-05-16T06:07:18.408Z,1009.10
2023-05-16T06:08:18.387Z,1009.17
2023-05-16T06:09:18.383Z,1009.07
2023-05-16T06:10:18.390Z,1009.16
2023-05-16T06:11:18.368Z,1009.14
2023-05-16T06:12:18.363Z,1009.12
2023-05-16T06:13:18.370Z,1009.17
2023-05-16T06:14:18.349Z,1009.15
2023-05-16T06:15:18.343Z,1009.22
2023-05-16T06:16:18.359Z,1009.19
2023-05-16T06:17:18.433Z,1009.24
2023-05-16T06:18:18.395Z,1009.22
2023-05-16T06:19:18.440Z,1009.23
2023-05-16T06:20:18.302Z,1009.24
2023-05-16T06:21:18.285Z,1009.23
2023-05-16T06:22:18.277Z,1009.27
2023-05-16T06:23:19.303Z,1009.23
2023-05-16T06:24:18.278Z,1009.29
2023-05-16T06:25:18.259Z,1009.26
2023-05-16T06:26:18.252Z,1009.26
2023-05-16T06:27:18.237Z,1009.26
2023-05-16T06:28:18.236Z,1009.23
2023-05-16T06:29:18.224Z,1009.24
2023-05-16T06:30:18.218Z,1009.29
2023-05-16T06:31:18.237Z,1009.20
2023-05-16T06:32:18.201Z,1009.26
2023-05-16T06:33:18.192Z,1009.30
2023-05-16T06:34:18.184Z,1009.26
2023-05-16T06:35:18.180Z,1009.24
2023-05-16T06:36:18.172Z,1009.27
2023-05-16T06:37:18.169Z,1009.25
2023-05-16T06:38:18.850Z,1009.19
2023-05-16T06:39:18.148Z,1009.22
2023-05-16T06:40:18.140Z,1009.26
2023-05-16T06:41:18.133Z,1009.25
2023-05-16T06:42:18.120Z,1009.28
2023-05-16T06:43:18.127Z,1009.28
2023-05-16T06:44:18.108Z,1009.33
2023-05-16T06:45:18.102Z,1009.32
2023-05-16T06:46:18.147Z,1009.35
2023-05-16T06:47:18.082Z,1009.38
2023-05-16T06:48:18.126Z,1009.37
2023-05-16T06:49:18.073Z,1009.42
2023-05-16T06:50:18.058Z,1009.42
2023-05-16T06:51:18.143Z,1009.45
2023-05-16T06:52:18.050Z,1009.50
2023-05-16T06:53:18.038Z,1009.49
2023-05-16T06:54:18.033Z,1009.58
2023-05-16T06:55:18.026Z,1009.58
2023-05-16T06:56:18.011Z,1009.64
2023-05-16T06:57:18.007Z,1009.63
2023-05-16T06:58:17.996Z,1009.66
2023-05-16T06:59:17.993Z,1009.66
2023-05-16T07:00:17.976Z,1009.64
2023-05-16T07:01:18.034Z,1009.66
2023-05-16T07:02:18.024Z,1009.69
2023-05-16T07:03:18.030Z,1009.71
2023-05-16T07:04:17.946Z,1009.69
2023-05-16T07:05:17.952Z,1009.65
2023-05-16T07:06:17.934Z,1009.66
2023-05-16T07:07:17.945Z,1009.70
2023-05-16T07:08:17.917Z,1009.68
2023-05-16T07:09:17.908Z,1009.71
2023-05-16T07:10:17.902Z,1009.69
2023-05-16T07:11:17.907Z,1009.71
2023-05-16T07:12:17.886Z,1009.68
2023-05-16T07:13:17.879Z,1009.71
2023-05-16T07:14:17.879Z,1009.74
2023-05-16T07:15:17.864Z,1009.62
2023-05-16T07:16:17.884Z,1009.59
2023-05-16T07:17:17.849Z,1009.70
2023-05-16T07:18:18.433Z,1009.74
2023-05-16T07:19:17.945Z,1009.73
2023-05-16T07:20:17.837Z,1009.77
2023-05-16T07:21:17.827Z,1009.78
2023-05-16T07:22:17.814Z,1009.74
2023-05-16T07:23:17.827Z,1009.77
2023-05-16T07:24:17.796Z,1009.83
2023-05-16T07:25:17.796Z,1009.80
2023-05-16T07:26:17.785Z,1009.79
2023-05-16T07:27:17.771Z,1009.82
2023-05-16T07:28:17.769Z,1009.83
2023-05-16T07:29:17.759Z,1009.86
2023-05-16T07:30:17.756Z,1009.82
2023-05-16T07:31:17.809Z,1009.77
2023-05-16T07:32:17.747Z,1009.81
2023-05-16T07:33:17.729Z,1009.81
2023-05-16T07:34:17.724Z,1009.82
2023-05-16T07:35:17.706Z,1009.86
2023-05-16T07:36:18.014Z,1009.93
2023-05-16T07:37:17.700Z,1009.91
2023-05-16T07:38:17.693Z,1009.94
2023-05-16T07:39:17.683Z,1009.97
2023-05-16T07:40:17.679Z,1010.00
2023-05-16T07:41:17.695Z,1009.99
2023-05-16T07:42:17.657Z,1010.04
2023-05-16T07:43:17.654Z,1010.00
2023-05-16T07:44:17.646Z,1010.01
2023-05-16T07:45:17.641Z,1009.97
2023-05-16T07:46:17.764Z,1009.98
2023-05-16T07:47:17.620Z,1009.92
2023-05-16T07:48:17.615Z,1010.01
2023-05-16T07:49:17.614Z,1010.03
2023-05-16T07:50:17.600Z,1009.97
2023-05-16T07:51:17.615Z,1009.93
2023-05-16T07:52:17.587Z,1009.97
2023-05-16T07:53:17.583Z,1009.94
2023-05-16T07:54:17.573Z,1009.94
2023-05-16T07:55:17.629Z,1009.94
2023-05-16T07:56:17.555Z,1009.91
2023-05-16T07:57:17.549Z,1009.99
2023-05-16T07:58:17.541Z,1009.98
2023-05-16T07:59:17.556Z,1009.99
2023-05-16T08:00:17.556Z,1010.00
2023-05-16T08:01:17.514Z,1010.03
2023-05-16T08:02:17.543Z,1010.00
2023-05-16T08:03:17.584Z,1010.04
2023-05-16T08:04:17.502Z,1010.03
2023-05-16T08:05:17.520Z,1010.02
2023-05-16T08:06:17.550Z,1009.99
2023-05-16T08:07:17.477Z,1010.02
2023-05-16T08:08:17.473Z,1010.03
2023-05-16T08:09:17.459Z,1010.05
2023-05-16T08:10:17.453Z,1010.14
2023-05-16T08:11:17.467Z,1010.12
2023-05-16T08:12:17.438Z,1010.20
2023-05-16T08:13:17.439Z,1010.15
2023-05-16T08:14:17.420Z,1010.17
2023-05-16T08:15:17.423Z,1010.16
2023-05-16T08:16:17.453Z,1010.18
2023-05-16T08:17:17.408Z,1010.19
2023-05-16T08:18:18.795Z,1010.21
2023-05-16T08:19:17.442Z,1010.23
2023-05-16T08:20:17.432Z,1010.20
2023-05-16T08:21:17.372Z,1010.25
2023-05-16T08:22:17.364Z,1010.25
2023-05-16T08:23:17.365Z,1010.29
2023-05-16T08:24:18.317Z,1010.27
2023-05-16T08:25:17.344Z,1010.27
2023-05-16T08:26:17.337Z,1010.33
2023-05-16T08:27:17.327Z,1010.35
2023-05-16T08:28:17.360Z,1010.35
2023-05-16T08:29:17.329Z,1010.33
2023-05-16T08:30:17.337Z,1010.39
2023-05-16T08:31:17.353Z,1010.38
2023-05-16T08:32:17.297Z,1010.38
2023-05-16T08:33:17.324Z,1010.38
2023-05-16T08:34:17.277Z,1010.38
2023-05-16T08:35:17.268Z,1010.39
2023-05-16T08:36:17.264Z,1010.38
2023-05-16T08:37:17.479Z,1010.44
2023-05-16T08:38:17.255Z,1010.38
2023-05-16T08:39:17.241Z,1010.40
2023-05-16T08:40:17.233Z,1010.44
2023-05-16T08:41:17.227Z,1010.46
2023-05-16T08:42:17.221Z,1010.45
2023-05-16T08:43:17.234Z,1010.47
2023-05-16T08:44:17.205Z,1010.47
2023-05-16T08:45:17.201Z,1010.47
2023-05-16T08:46:17.217Z,1010.49
2023-05-16T08:47:17.227Z,1010.49
2023-05-16T08:48:17.290Z,1010.50
2023-05-16T08:49:17.167Z,1010.49
2023-05-16T08:50:17.165Z,1010.53
2023-05-16T08:51:17.159Z,1010.52
2023-05-16T08:52:17.151Z,1010.51
2023-05-16T08:53:17.134Z,1010.54
2023-05-16T08:54:17.140Z,1010.56
2023-05-16T08:55:17.135Z,1010.53
2023-05-16T08:56:17.134Z,1010.48
2023-05-16T08:57:17.118Z,1010.53
2023-05-16T08:58:17.111Z,1010.51
2023-05-16T08:59:17.230Z,1010.50
2023-05-16T09:00:17.120Z,1010.52
2023-05-16T09:01:17.120Z,1010.50
2023-05-16T09:02:17.082Z,1010.48
2023-05-16T09:03:17.194Z,1010.47
2023-05-16T09:04:17.125Z,1010.44
2023-05-16T09:05:17.066Z,1010.45
2023-05-16T09:06:17.052Z,1010.42
2023-05-16T09:07:17.046Z,1010.45
2023-05-16T09:08:17.042Z,1010.45
2023-05-16T09:09:17.031Z,1010.41
2023-05-16T09:10:17.045Z,1010.48
2023-05-16T09:11:17.019Z,1010.39
2023-05-16T09:12:17.013Z,1010.46
2023-05-16T09:13:17.001Z,1010.41
2023-05-16T09:14:16.996Z,1010.44
2023-05-16T09:15:17.005Z,1010.46
2023-05-16T09:16:17.076Z,1010.44
2023-05-16T09:17:20.470Z,1010.42
2023-05-16T09:18:17.018Z,1010.42
2023-05-16T09:19:17.003Z,1010.47
2023-05-16T09:20:16.968Z,1010.39
2023-05-16T09:21:16.943Z,1010.44
2023-05-16T09:22:16.939Z,1010.41
2023-05-16T09:23:16.930Z,1010.44
2023-05-16T09:24:16.923Z,1010.47
2023-05-16T09:25:28.316Z,1010.45
2023-05-16T09:26:16.907Z,1010.48
2023-05-16T09:27:16.905Z,1010.46
2023-05-16T09:28:16.897Z,1010.54
2023-05-16T09:29:16.888Z,1010.55
2023-05-16T09:30:16.884Z,1010.63
2023-05-16T09:31:16.911Z,1010.59
2023-05-16T09:32:16.868Z,1010.59
2023-05-16T09:33:16.892Z,1010.61
2023-05-16T09:34:16.854Z,1010.55
2023-05-16T09:35:27.239Z,1010.65
2023-05-16T09:36:16.845Z,1010.59
2023-05-16T09:37:16.836Z,1010.62
2023-05-16T09:38:17.102Z,1010.53
2023-05-16T09:39:16.818Z,1010.57
2023-05-16T09:40:16.835Z,1010.61
2023-05-16T09:41:16.813Z,1010.69
2023-05-16T09:42:16.796Z,1010.68
2023-05-16T09:43:17.316Z,1010.60
2023-05-16T09:44:16.984Z,1010.64
2023-05-16T09:45:16.777Z,1010.67
2023-05-16T09:46:16.796Z,1010.67
2023-05-16T09:47:16.797Z,1010.69
2023-05-16T09:48:16.808Z,1010.65
2023-05-16T09:49:16.784Z,1010.68
2023-05-16T09:50:17.441Z,1010.69
2023-05-16T09:51:16.944Z,1010.77
2023-05-16T09:52:16.729Z,1010.73
2023-05-16T09:53:16.744Z,1010.79
2023-05-16T09:54:16.713Z,1010.79
2023-05-16T09:55:16.710Z,1010.80
2023-05-16T09:56:16.699Z,1010.80
2023-05-16T09:57:16.693Z,1010.86
2023-05-16T09:58:16.687Z,1010.93
2023-05-16T09:59:16.684Z,1010.91
2023-05-16T10:00:16.670Z,1010.94
2023-05-16T10:01:16.671Z,1010.90
2023-05-16T10:02:16.839Z,1010.94
2023-05-16T10:03:16.876Z,1011.02
2023-05-16T10:04:16.816Z,1010.94
2023-05-16T10:05:16.635Z,1010.94
2023-05-16T10:06:16.677Z,1011.00
2023-05-16T10:07:16.651Z,1010.98
2023-05-16T10:08:16.615Z,1011.03
2023-05-16T10:09:16.610Z,1011.07
2023-05-16T10:10:16.627Z,1011.04
2023-05-16T10:11:16.596Z,1011.04
2023-05-16T10:12:16.597Z,1011.03
2023-05-16T10:13:16.609Z,1011.04
2023-05-16T10:14:16.574Z,1011.06
2023-05-16T10:15:16.568Z,1010.91
2023-05-16T10:16:16.604Z,1010.98
2023-05-16T10:17:16.593Z,1011.05
2023-05-16T10:18:16.623Z,1011.11
2023-05-16T10:19:16.602Z,1011.04
2023-05-16T10:20:16.705Z,1011.05
2023-05-16T10:21:16.554Z,1011.13
2023-05-16T10:22:16.529Z,1011.03
2023-05-16T10:23:16.515Z,1011.04
2023-05-16T10:24:16.509Z,1011.05
2023-05-16T10:25:16.500Z,1011.08
2023-05-16T10:26:16.497Z,1011.11
2023-05-16T10:27:17.918Z,1011.00
2023-05-16T10:28:16.541Z,1011.05
2023-05-16T10:29:16.483Z,1011.05
2023-05-16T10:30:16.513Z,1011.07
2023-05-16T10:31:16.494Z,1011.06
2023-05-16T10:32:16.577Z,1011.09
2023-05-16T10:33:16.542Z,1011.04
2023-05-16T10:34:16.428Z,1011.13
2023-05-16T10:35:16.448Z,1011.11
2023-05-16T10:36:16.416Z,1011.10
2023-05-16T10:37:16.407Z,1011.15
2023-05-16T10:38:16.402Z,1011.12
2023-05-16T10:39:16.395Z,1011.14
2023-05-16T10:40:16.500Z,1011.15
2023-05-16T10:41:16.392Z,1011.18
2023-05-16T10:42:16.381Z,1011.18
2023-05-16T10:43:16.364Z,1011.17
2023-05-16T10:44:16.352Z,1011.21
2023-05-16T10:45:16.349Z,1011.21
2023-05-16T10:46:16.416Z,1011.24
2023-05-16T10:47:16.337Z,1011.27
2023-05-16T10:48:16.378Z,1011.31
2023-05-16T10:49:16.322Z,1011.28
2023-05-16T10:50:16.351Z,1011.24
2023-05-16T10:51:16.358Z,1011.26
2023-05-16T10:52:16.296Z,1011.25
2023-05-16T10:53:16.317Z,1011.22
2023-05-16T10:54:16.283Z,1011.24
2023-05-16T10:55:16.289Z,1011.22
2023-05-16T10:56:16.267Z,1011.23
2023-05-16T10:57:16.260Z,1011.28
2023-05-16T10:58:16.264Z,1011.26
2023-05-16T10:59:16.247Z,1011.25
2023-05-16T11:00:16.321Z,1011.30
2023-05-16T11:01:16.362Z,1011.29
2023-05-16T11:02:16.298Z,1011.26
2023-05-16T11:03:16.297Z,1011.24
2023-05-16T11:04:16.210Z,1011.23
2023-05-16T11:05:16.205Z,1011.21
2023-05-16T11:06:17.365Z,1011.23
2023-05-16T11:07:16.204Z,1011.18
2023-05-16T11:08:16.194Z,1011.15
2023-05-16T11:09:16.204Z,1011.18
2023-05-16T11:10:16.174Z,1011.14
2023-05-16T11:11:16.164Z,1011.14
2023-05-16T11:12:16.188Z,1011.14
2023-05-16T11:13:16.155Z,1011.12
2023-05-16T11:14:16.149Z,1011.15
2023-05-16T11:15:16.140Z,1011.14
2023-05-16T11:16:16.171Z,1011.13
2023-05-16T11:17:16.376Z,1011.15
2023-05-16T11:18:16.190Z,1011.17
2023-05-16T11:19:16.231Z,1011.24
2023-05-16T11:20:16.117Z,1011.12
2023-05-16T11:21:16.100Z,1011.11
2023-05-16T11:22:16.096Z,1011.11
2023-05-16T11:23:16.142Z,1011.12
2023-05-16T11:24:16.090Z,1011.22
2023-05-16T11:25:16.082Z,1011.19
2023-05-16T11:26:16.071Z,1011.22
2023-05-16T11:27:16.068Z,1011.19
2023-05-16T11:28:16.060Z,1011.28
2023-05-16T11:29:16.053Z,1011.23
2023-05-16T11:30:16.046Z,1011.29
2023-05-16T11:31:16.098Z,1011.28
2023-05-16T11:32:16.080Z,1011.30
2023-05-16T11:33:16.164Z,1011.34
2023-05-16T11:34:16.021Z,1011.33
2023-05-16T11:35:16.028Z,1011.38
2023-05-16T11:36:16.690Z,1011.35
2023-05-16T11:37:16.005Z,1011.38
2023-05-16T11:38:16.000Z,1011.39
2023-05-16T11:39:16.025Z,1011.43
2023-05-16T11:40:15.987Z,1011.37
2023-05-16T11:41:15.979Z,1011.43
2023-05-16T11:42:16.942Z,1011.42
2023-05-16T11:43:15.962Z,1011.34
2023-05-16T11:44:15.959Z,1011.37
2023-05-16T11:45:15.959Z,1011.38
2023-05-16T11:46:15.973Z,1011.36
2023-05-16T11:47:15.947Z,1011.35
2023-05-16T11:48:24.871Z,1011.34
2023-05-16T11:49:15.932Z,1011.40
2023-05-16T11:50:15.931Z,1011.37
2023-05-16T11:51:15.913Z,1011.41
2023-05-16T11:52:15.910Z,1011.43
2023-05-16T11:53:15.896Z,1011.38
2023-05-16T11:54:15.895Z,1011.34
2023-05-16T11:55:21.868Z,1011.32
2023-05-16T11:56:15.878Z,1011.32
2023-05-16T11:57:15.874Z,1011.29
2023-05-16T11:58:15.868Z,1011.32
2023-05-16T11:59:15.866Z,1011.28
2023-05-16T12:00:15.861Z,1011.32
2023-05-16T12:01:15.848Z,1011.36
2023-05-16T12:02:15.843Z,1011.31
2023-05-16T12:03:15.984Z,1011.22
2023-05-16T12:04:16.092Z,1011.28
2023-05-16T12:05:15.852Z,1011.27
2023-05-16T12:06:15.817Z,1011.28
2023-05-16T12:07:15.813Z,1011.25
2023-05-16T12:08:15.803Z,1011.34
2023-05-16T12:09:18.230Z,1011.32
2023-05-16T12:10:15.826Z,1011.34
2023-05-16T12:11:15.811Z,1011.28
2023-05-16T12:12:15.780Z,1011.21
2023-05-16T12:13:15.773Z,1011.33
2023-05-16T12:14:15.769Z,1011.22
2023-05-16T12:15:15.758Z,1011.22
2023-05-16T12:16:15.774Z,1011.29
2023-05-16T12:17:15.744Z,1011.19
2023-05-16T12:18:15.791Z,1011.14
2023-05-16T12:19:15.791Z,1011.25
2023-05-16T12:20:15.735Z,1011.22
2023-05-16T12:21:15.730Z,1011.22
2023-05-16T12:22:15.726Z,1011.23
2023-05-16T12:23:15.726Z,1011.24
2023-05-16T12:24:15.730Z,1011.23